Time;durP1;ratioP1;P1;durP2;ratioP2;P2;SDS_P1;SDS_P2;PMS_P1;PMS_P2;Temp;Humidity;BMP_temperature;BMP_pressure;BME280_temperature;BME280_humidity;BME280_pressure;Samples;Min_cycle;Max_cycle;Signal;HPM_P1;HPM_P2
2021/10/24 00:01:19;;;;;;;20.45;11.48;;;;;;;2.64;87.63;101454.23;1790693;80;25497;-48
2021/10/24 00:03:46;;;;;;;20.72;11.80;;;;;;;2.66;87.55;101459.35;1790654;80;26822;-50
2021/10/24 00:06:14;;;;;;;23.75;12.00;;;;;;;2.69;87.55;101457.04;1790483;80;25611;-48
2021/10/24 00:08:40;;;;;;;23.62;12.45;;;;;;;2.70;87.41;101460.52;1790459;78;25467;-47
2021/10/24 00:11:07;;;;;;;20.57;11.12;;;;;;;2.71;87.45;101462.96;1790633;80;25657;-47
2021/10/24 00:13:33;;;;;;;21.97;12.07;;;;;;;2.70;87.38;101462.66;1790561;80;25405;-47
2021/10/24 00:16:00;;;;;;;24.05;12.30;;;;;;;2.72;87.66;101463.77;1790526;80;27531;-47
2021/10/24 00:18:27;;;;;;;20.72;12.50;;;;;;;2.71;87.60;101466.97;1790472;80;25615;-48
2021/10/24 00:20:54;;;;;;;23.00;11.60;;;;;;;2.73;87.58;101465.41;1790572;80;25421;-51
2021/10/24 00:23:21;;;;;;;25.77;13.85;;;;;;;2.74;87.81;101473.20;1790529;80;26175;-50
2021/10/24 00:25:48;;;;;;;23.05;11.50;;;;;;;2.75;88.02;101482.02;1790571;80;25600;-48
2021/10/24 00:28:15;;;;;;;21.00;12.63;;;;;;;2.78;88.04;101479.70;1790522;80;28060;-49
2021/10/24 00:30:41;;;;;;;24.65;12.95;;;;;;;2.80;88.05;101477.61;1790467;80;25434;-48
2021/10/24 00:33:08;;;;;;;24.87;12.40;;;;;;;2.84;88.06;101479.84;1790539;80;25469;-47
2021/10/24 00:35:35;;;;;;;21.55;12.55;;;;;;;2.87;88.21;101484.73;1770836;80;26082;-48
2021/10/24 00:38:02;;;;;;;22.48;13.20;;;;;;;2.91;88.35;101489.91;1790567;80;25427;-48
2021/10/24 00:40:29;;;;;;;20.90;11.85;;;;;;;2.94;88.42;101490.79;1790535;78;27612;-48
2021/10/24 00:42:58;;;;;;;25.97;13.68;;;;;;;2.98;88.60;101495.45;1790513;80;25502;-48
2021/10/24 00:45:24;;;;;;;23.33;12.40;;;;;;;3.02;88.56;101497.15;1790814;80;25195;-48
2021/10/24 00:47:53;;;;;;;24.47;12.13;;;;;;;3.06;88.58;101497.50;1790497;80;26121;-48
2021/10/24 00:50:21;;;;;;;23.83;13.08;;;;;;;3.09;88.56;101507.22;1794158;79;25652;-49
2021/10/24 00:52:48;;;;;;;25.12;12.43;;;;;;;3.11;88.61;101506.98;1796423;79;27488;-49
2021/10/24 00:55:16;;;;;;;27.25;13.05;;;;;;;3.14;88.62;101503.33;1796411;79;25415;-52
2021/10/24 00:57:43;;;;;;;25.00;14.38;;;;;;;3.18;88.47;101503.19;1796400;79;25454;-49
2021/10/24 01:00:13;;;;;;;22.82;12.88;;;;;;;3.20;88.45;101502.92;1796393;79;26220;-49
2021/10/24 01:02:40;;;;;;;;;;;;;;;3.24;88.45;101503.31;1799130;79;25502;-51
2021/10/24 01:05:09;;;;;;;20.95;12.07;;;;;;;3.28;88.44;101517.83;1796512;79;27673;-48
2021/10/24 01:07:39;;;;;;;22.90;12.60;;;;;;;3.27;88.46;101514.86;1796590;79;25495;-48
2021/10/24 01:10:07;;;;;;;21.12;12.10;;;;;;;3.30;88.42;101521.09;1780674;79;25431;-50
2021/10/24 01:12:37;;;;;;;22.50;11.65;;;;;;;3.32;88.34;101518.99;1796381;79;26138;-49
2021/10/24 01:15:05;;;;;;;21.42;12.43;;;;;;;3.34;88.40;101521.74;1796567;79;25672;-50
2021/10/24 01:17:32;;;;;;;24.18;13.55;;;;;;;3.36;88.39;101523.66;1796394;79;27481;-51
2021/10/24 01:19:58;;;;;;;24.37;13.15;;;;;;;3.39;88.50;101523.73;1796326;79;25874;-51
2021/10/24 01:22:25;;;;;;;24.70;13.00;;;;;;;3.42;88.38;101525.92;1796354;79;25832;-49
2021/10/24 01:24:51;;;;;;;21.80;13.38;;;;;;;3.42;88.42;101520.58;1796367;79;26237;-50
2021/10/24 01:27:18;;;;;;;23.85;13.22;;;;;;;3.44;88.37;101519.02;1796415;79;25654;-48
2021/10/24 01:29:44;;;;;;;29.25;16.32;;;;;;;3.46;88.47;101518.28;1796352;79;27595;-48
2021/10/24 01:32:11;;;;;;;36.35;17.45;;;;;;;3.48;88.42;101523.67;1796327;79;25666;-47
2021/10/24 01:34:48;;;;;;;34.45;18.73;;;;;;;3.49;88.48;101524.48;1796412;79;25595;-47
2021/10/24 01:37:16;;;;;;;34.88;17.50;;;;;;;3.50;88.49;101526.93;1796394;79;26234;-50
2021/10/24 01:39:43;;;;;;;34.35;14.68;;;;;;;3.52;88.68;101535.56;1796374;78;25647;-47
2021/10/24 01:42:10;;;;;;;22.73;12.40;;;;;;;3.55;88.82;101535.08;1796403;79;27412;-50
2021/10/24 01:44:37;;;;;;;21.07;12.05;;;;;;;3.58;88.85;101533.81;1796281;79;25431;-48
2021/10/24 01:47:04;;;;;;;19.30;10.75;;;;;;;3.61;88.84;101533.36;1796352;79;25401;-48
2021/10/24 01:49:31;;;;;;;22.13;11.80;;;;;;;3.64;88.88;101526.71;1795336;79;25513;-47
2021/10/24 01:52:01;;;;;;;19.45;11.55;;;;;;;3.65;89.05;101530.50;1790524;80;25433;-49
2021/10/24 01:54:27;;;;;;;27.98;13.13;;;;;;;3.67;89.08;101534.28;1790108;79;28107;-48
2021/10/24 01:56:54;;;;;;;23.70;11.95;;;;;;;3.71;89.16;101541.63;1790437;80;25643;-49
2021/10/24 01:59:21;;;;;;;21.82;11.48;;;;;;;3.72;89.16;101532.52;1790484;80;25673;-49
2021/10/24 02:01:48;;;;;;;18.80;10.05;;;;;;;3.75;89.17;101527.25;1790563;80;25672;-50
2021/10/24 02:04:15;;;;;;;18.40;11.00;;;;;;;3.76;89.12;101528.86;1790543;80;25517;-51
2021/10/24 02:06:42;;;;;;;15.40;8.95;;;;;;;3.80;89.15;101530.54;1790505;80;27817;-49
2021/10/24 02:09:08;;;;;;;16.45;9.15;;;;;;;3.81;89.13;101531.65;1790402;78;25631;-49
2021/10/24 02:11:35;;;;;;;18.52;10.80;;;;;;;3.82;89.03;101529.27;1790653;80;25585;-49
2021/10/24 02:14:01;;;;;;;16.20;9.53;;;;;;;3.85;89.08;101538.72;1790584;80;25686;-52
2021/10/24 02:16:28;;;;;;;19.02;10.18;;;;;;;3.85;88.92;101545.41;1790654;80;25477;-52
2021/10/24 02:18:54;;;;;;;19.67;10.15;;;;;;;3.84;88.94;101553.13;1790689;80;27535;-49
2021/10/24 02:21:21;;;;;;;17.27;10.43;;;;;;;3.85;88.74;101552.91;1790547;80;27311;-49
2021/10/24 02:23:48;;;;;;;16.17;9.33;;;;;;;3.86;88.70;101553.71;1790754;80;25674;-52
2021/10/24 02:26:14;;;;;;;19.67;10.65;;;;;;;3.83;88.49;101550.16;1790750;80;25567;-52
2021/10/24 02:28:41;;;;;;;19.30;10.15;;;;;;;3.81;88.27;101560.28;1790827;80;25580;-48
2021/10/24 02:31:08;;;;;;;19.35;10.00;;;;;;;3.77;88.00;101559.94;1790612;80;27524;-49
2021/10/24 02:33:34;;;;;;;13.10;8.93;;;;;;;3.73;88.02;101558.25;1790544;80;25620;-49
2021/10/24 02:36:01;;;;;;;16.60;11.25;;;;;;;3.69;87.95;101553.05;1790673;80;25517;-50
2021/10/24 02:38:27;;;;;;;19.32;9.95;;;;;;;3.67;87.91;101553.02;1790581;80;25619;-49
2021/10/24 02:40:54;;;;;;;17.40;10.50;;;;;;;3.66;87.94;101568.77;1790746;78;25526;-51
2021/10/24 02:43:20;;;;;;;17.50;10.88;;;;;;;3.62;87.91;101571.09;1790627;80;27549;-51
2021/10/24 02:45:47;;;;;;;18.57;10.32;;;;;;;3.59;87.79;101568.87;1790521;80;25420;-49
2021/10/24 02:48:13;;;;;;;21.07;11.22;;;;;;;3.56;87.69;101578.72;1790637;80;25584;-51
2021/10/24 02:50:40;;;;;;;20.17;10.63;;;;;;;3.51;87.52;101576.73;1793331;79;25588;-51
2021/10/24 02:53:06;;;;;;;20.32;10.82;;;;;;;3.48;87.27;101583.06;1796541;79;25509;-53
2021/10/24 02:55:33;;;;;;;22.37;10.53;;;;;;;3.42;87.11;101592.80;1796516;79;27549;-49
2021/10/24 02:58:00;;;;;;;20.43;9.90;;;;;;;3.38;87.04;101594.84;1796457;79;25446;-50
2021/10/24 03:00:27;;;;;;;21.10;10.80;;;;;;;3.32;86.92;101590.70;1796523;79;25430;-51
2021/10/24 03:02:53;;;;;;;20.45;10.75;;;;;;;3.24;86.84;101603.58;1796494;79;25562;-52
2021/10/24 03:05:20;;;;;;;17.37;10.43;;;;;;;3.18;86.85;101601.28;1796675;79;25596;-52
2021/10/24 03:07:47;;;;;;;15.40;9.23;;;;;;;3.13;86.95;101615.35;1796523;79;27435;-53
2021/10/24 03:10:13;;;;;;;17.98;9.65;;;;;;;3.11;86.91;101615.27;1796349;78;25420;-53
2021/10/24 03:12:40;;;;;;;17.92;10.25;;;;;;;3.09;87.07;101608.80;1796503;79;25466;-53
2021/10/24 03:15:07;;;;;;;22.00;11.90;;;;;;;3.06;87.32;101599.89;1796472;79;25673;-53
2021/10/24 03:17:34;;;;;;;23.80;12.80;;;;;;;3.06;87.43;101606.58;1796556;79;25615;-52
2021/10/24 03:20:00;;;;;;;22.95;12.28;;;;;;;3.06;87.68;101609.25;1796430;79;27575;-52
2021/10/24 03:22:28;;;;;;;20.97;11.05;;;;;;;3.05;87.77;101618.33;1796441;79;25598;-52
2021/10/24 03:24:54;;;;;;;23.60;11.48;;;;;;;3.07;87.96;101618.91;1796467;79;25477;-53
2021/10/24 03:27:21;;;;;;;21.05;11.28;;;;;;;3.08;88.08;101618.39;1796429;79;25599;-51
2021/10/24 03:29:47;;;;;;;17.73;11.45;;;;;;;3.07;88.11;101618.91;1796594;79;25591;-50
2021/10/24 03:32:13;;;;;;;22.70;12.18;;;;;;;3.09;88.27;101621.37;1796482;79;27462;-52
2021/10/24 03:34:40;;;;;;;20.80;11.40;;;;;;;3.09;88.36;101620.03;1796377;79;25604;-53
2021/10/24 03:37:06;;;;;;;19.32;11.97;;;;;;;3.10;88.40;101621.64;1796459;79;25407;-48
2021/10/24 03:39:33;;;;;;;21.75;11.18;;;;;;;3.10;88.59;101622.48;1796428;78;25551;-51
2021/10/24 03:42:00;;;;;;;21.93;11.57;;;;;;;3.14;88.63;101630.86;1796486;79;25514;-52
2021/10/24 03:44:26;;;;;;;22.20;11.60;;;;;;;3.16;88.70;101641.61;1796483;79;27562;-51
2021/10/24 03:46:53;;;;;;;22.40;12.33;;;;;;;3.20;88.90;101643.84;1796385;79;25502;-51
2021/10/24 03:49:19;;;;;;;21.05;12.15;;;;;;;3.22;88.92;101650.61;1796425;79;25431;-51
2021/10/24 03:51:46;;;;;;;20.52;11.60;;;;;;;3.25;88.90;101651.50;1791648;79;25696;-52
2021/10/24 03:54:13;;;;;;;18.27;10.82;;;;;;;3.26;88.92;101651.77;1790601;80;25449;-53
2021/10/24 03:56:40;;;;;;;22.87;12.00;;;;;;;3.28;88.93;101655.56;1790554;80;29523;-50
2021/10/24 03:59:06;;;;;;;22.32;11.83;;;;;;;3.31;88.98;101655.11;1790506;79;25436;-49
2021/10/24 04:01:32;;;;;;;21.12;11.18;;;;;;;3.33;88.88;101654.36;1790571;80;25663;-50
2021/10/24 04:03:59;;;;;;;21.48;11.88;;;;;;;3.34;88.78;101650.13;1790528;80;25594;-48
2021/10/24 04:06:25;;;;;;;22.27;12.15;;;;;;;3.33;88.51;101649.81;1790579;80;25610;-49
2021/10/24 04:08:52;;;;;;;20.35;11.83;;;;;;;3.30;88.46;101651.63;1790487;78;27465;-48
2021/10/24 04:11:20;;;;;;;23.02;12.10;;;;;;;3.26;88.35;101653.11;1790456;80;25560;-49
2021/10/24 04:13:47;;;;;;;20.40;11.63;;;;;;;3.22;88.22;101651.94;1790611;80;25622;-50
2021/10/24 04:16:14;;;;;;;20.97;11.38;;;;;;;3.18;88.20;101654.25;1790576;80;26235;-51
2021/10/24 04:18:40;;;;;;;29.57;13.60;;;;;;;3.14;88.07;101657.07;1790585;80;25609;-51
2021/10/24 04:21:06;;;;;;;24.43;13.28;;;;;;;3.11;88.15;101648.69;1790504;80;27447;-52
2021/10/24 04:23:33;;;;;;;24.27;13.98;;;;;;;3.08;88.28;101656.66;1790454;80;25595;-50
2021/10/24 04:26:00;;;;;;;28.12;14.60;;;;;;;3.06;88.47;101665.39;1790626;80;25768;-53
2021/10/24 04:28:26;;;;;;;27.40;13.40;;;;;;;3.06;88.49;101665.39;1790507;80;25691;-51
2021/10/24 04:30:53;;;;;;;28.32;14.87;;;;;;;3.04;88.67;101664.00;1790523;80;25398;-49
2021/10/24 04:33:21;;;;;;;28.35;14.63;;;;;;;3.02;88.75;101665.56;1790506;80;29607;-49
2021/10/24 04:35:47;;;;;;;25.97;14.78;;;;;;;3.01;88.49;101671.13;1790489;80;25639;-51
2021/10/24 04:38:14;;;;;;;27.27;14.20;;;;;;;2.98;88.62;101661.72;1790516;80;25583;-49
2021/10/24 04:40:40;;;;;;;24.85;13.55;;;;;;;2.96;88.60;101665.95;1790447;78;25584;-50
2021/10/24 04:43:07;;;;;;;25.65;13.32;;;;;;;2.94;88.50;101665.86;1790591;79;25650;-48
2021/10/24 04:45:35;;;;;;;27.10;14.73;;;;;;;2.93;88.66;101676.27;1790548;80;27490;-49
2021/10/24 04:48:03;;;;;;;30.62;15.90;;;;;;;2.91;88.45;101676.99;1790459;80;25793;-48
2021/10/24 04:50:30;;;;;;;28.98;15.15;;;;;;;2.87;88.40;101677.96;1790436;78;25577;-51
2021/10/24 04:52:56;;;;;;;26.80;15.28;;;;;;;2.85;88.34;101681.91;1790605;80;25584;-48
2021/10/24 04:55:23;;;;;;;21.70;13.30;;;;;;;2.80;88.30;101687.39;1790549;80;25597;-49
2021/10/24 04:57:49;;;;;;;37.93;17.30;;;;;;;2.76;88.33;101680.87;1790504;80;27562;-52
2021/10/24 05:00:15;;;;;;;28.07;16.40;;;;;;;2.73;88.43;101685.84;1790438;80;26184;-49
2021/10/24 05:02:42;;;;;;;35.83;17.30;;;;;;;2.68;88.46;101691.84;1790530;80;25435;-49
2021/10/24 05:05:10;;;;;;;45.83;17.85;;;;;;;2.65;88.68;101697.63;1790470;80;25523;-48
2021/10/24 05:07:36;;;;;;;32.80;16.87;;;;;;;2.61;88.75;101700.45;1790560;80;25607;-52
2021/10/24 05:10:04;;;;;;;36.98;18.85;;;;;;;2.58;88.98;101705.70;1790443;78;27496;-50
2021/10/24 05:12:31;;;;;;;45.75;19.32;;;;;;;2.58;89.26;101706.23;1790448;79;25603;-48
2021/10/24 05:14:58;;;;;;;50.67;19.77;;;;;;;2.58;89.59;101710.24;1790532;80;25442;-49
2021/10/24 05:17:24;;;;;;;53.68;20.68;;;;;;;2.59;89.75;101699.86;1790470;80;25663;-48
2021/10/24 05:19:50;;;;;;;47.73;22.05;;;;;;;2.60;89.86;101696.95;1790497;80;25671;-48
2021/10/24 05:22:17;;;;;;;36.45;18.10;;;;;;;2.63;89.97;101701.05;1790485;80;27583;-52
2021/10/24 05:24:44;;;;;;;49.50;20.32;;;;;;;2.65;90.04;101700.83;1790413;80;25659;-49
2021/10/24 05:27:10;;;;;;;41.25;19.50;;;;;;;2.68;90.19;101693.70;1790525;79;25596;-49
2021/10/24 05:29:37;;;;;;;41.40;19.98;;;;;;;2.71;90.27;101709.30;1790423;80;25541;-49
2021/10/24 05:32:04;;;;;;;44.38;20.65;;;;;;;2.76;90.42;101709.45;1790498;80;25599;-49
2021/10/24 05:34:31;;;;;;;40.88;19.87;;;;;;;2.80;90.50;101721.32;1790506;80;27440;-50
2021/10/24 05:36:57;;;;;;;43.68;19.62;;;;;;;2.87;90.67;101726.07;1790423;80;25602;-48
2021/10/24 05:39:24;;;;;;;42.38;19.32;;;;;;;2.92;90.81;101730.23;1790491;78;25490;-50
2021/10/24 05:41:50;;;;;;;46.35;22.15;;;;;;;2.98;90.80;101724.53;1790446;79;25632;-50
2021/10/24 05:44:19;;;;;;;37.42;18.57;;;;;;;3.04;90.84;101719.61;1790547;80;25611;-48
2021/10/24 05:46:48;;;;;;;41.13;19.40;;;;;;;3.10;90.82;101715.22;1790612;80;28084;-49
2021/10/24 05:49:16;;;;;;;;;;;;;;;3.15;90.87;101713.53;1793050;79;25430;-49
2021/10/24 05:51:43;;;;;;;45.43;19.65;;;;;;;3.23;91.02;101727.63;1790405;78;25510;-51
2021/10/24 05:54:10;;;;;;;45.52;21.45;;;;;;;3.27;91.06;101728.80;1790566;80;25661;-48
2021/10/24 05:56:36;;;;;;;50.78;25.70;;;;;;;3.30;91.00;101739.89;1790622;80;25585;-48
2021/10/24 05:59:03;;;;;;;44.70;22.65;;;;;;;3.34;91.05;101743.73;1790567;80;27510;-53
2021/10/24 06:01:29;;;;;;;48.00;21.75;;;;;;;3.40;91.03;101743.88;1790410;80;25843;-52
2021/10/24 06:03:56;;;;;;;45.43;22.10;;;;;;;3.44;91.15;101748.56;1790597;80;25572;-51
2021/10/24 06:06:22;;;;;;;44.65;22.70;;;;;;;3.51;91.28;101755.17;1790437;80;25520;-51
2021/10/24 06:08:49;;;;;;;49.48;22.48;;;;;;;3.55;91.21;101755.00;1790501;78;25509;-50
2021/10/24 06:11:25;;;;;;;48.92;22.25;;;;;;;3.60;91.19;101752.99;1770695;80;28207;-52
2021/10/24 06:13:48;;;;;;;47.93;21.10;;;;;;;3.64;91.29;101757.64;1789523;79;25636;-47
2021/10/24 06:16:15;;;;;;;58.48;24.35;;;;;;;3.70;91.42;101758.09;1790505;80;25593;-52
2021/10/24 06:18:42;;;;;;;46.30;23.70;;;;;;;3.76;91.47;101765.72;1790463;80;26255;-50
2021/10/24 06:21:08;;;;;;;53.78;23.62;;;;;;;3.82;91.45;101768.84;1790499;80;25466;-51
2021/10/24 06:23:35;;;;;;;46.08;24.60;;;;;;;3.86;91.15;101775.36;1790484;80;27550;-52
2021/10/24 06:26:03;;;;;;;50.45;24.67;;;;;;;3.85;90.77;101784.45;1790363;80;25505;-51
2021/10/24 06:28:29;;;;;;;54.63;25.88;;;;;;;3.86;90.92;101780.71;1790496;80;25656;-49
2021/10/24 06:30:56;;;;;;;54.83;25.50;;;;;;;3.91;90.95;101781.38;1790442;80;25599;-52
2021/10/24 06:33:22;;;;;;;52.40;25.55;;;;;;;3.93;90.96;101784.63;1790494;80;25664;-50
2021/10/24 06:35:49;;;;;;;53.68;24.07;;;;;;;3.96;90.95;101787.39;1790483;80;27552;-49
2021/10/24 06:38:17;;;;;;;50.98;23.70;;;;;;;3.98;90.90;101790.66;1790356;80;25785;-51
2021/10/24 06:40:44;;;;;;;46.58;22.85;;;;;;;4.03;91.16;101798.82;1790538;78;25580;-48
2021/10/24 06:43:12;;;;;;;51.37;22.80;;;;;;;4.06;91.04;101798.38;1790409;80;25590;-53
2021/10/24 06:45:39;;;;;;;49.58;23.05;;;;;;;4.08;90.86;101811.00;1790474;80;25679;-49
2021/10/24 06:48:06;;;;;;;49.63;23.45;;;;;;;4.08;90.75;101807.80;1790469;80;27469;-50
2021/10/24 06:50:34;;;;;;;48.87;23.75;;;;;;;4.10;90.71;101808.41;1745782;80;25672;-51
2021/10/24 06:53:01;;;;;;;49.20;23.95;;;;;;;4.12;91.02;101805.50;1764506;79;25571;-51
2021/10/24 06:55:29;;;;;;;46.92;21.90;;;;;;;4.17;90.78;101808.31;1760606;81;25548;-51
2021/10/24 06:57:56;;;;;;;41.83;22.40;;;;;;;4.21;90.87;101813.49;1760739;81;25467;-49
2021/10/24 07:00:26;;;;;;;39.98;22.27;;;;;;;4.23;90.85;101815.41;1760813;81;27513;-52
2021/10/24 07:02:53;;;;;;;44.80;22.67;;;;;;;4.28;91.04;101820.90;1760521;81;25493;-52
2021/10/24 07:05:25;;;;;;;45.23;21.80;;;;;;;4.34;91.15;101822.36;1732928;81;25528;-49
2021/10/24 07:07:52;;;;;;;39.67;21.95;;;;;;;4.36;90.73;101825.12;1733071;81;26122;-50
2021/10/24 07:10:19;;;;;;;45.88;22.30;;;;;;;4.40;91.04;101827.63;1708429;81;25677;-51
2021/10/24 07:12:51;;;;;;;47.58;23.18;;;;;;;4.46;91.21;101833.41;1760782;81;27525;-51
2021/10/24 07:15:15;;;;;;;43.50;22.25;;;;;;;4.53;91.12;101836.00;1760185;81;25497;-51
2021/10/24 07:17:42;;;;;;;51.88;23.05;;;;;;;4.59;91.12;101843.09;1760651;81;25487;-49
2021/10/24 07:20:11;;;;;;;47.60;22.52;;;;;;;4.57;90.44;101840.37;1760690;81;25633;-49
2021/10/24 07:22:37;;;;;;;41.30;21.17;;;;;;;4.56;90.25;101844.89;1756765;81;25536;-50
2021/10/24 07:25:05;;;;;;;47.05;21.02;;;;;;;4.57;90.17;101848.41;1760657;81;27503;-50
2021/10/24 07:27:32;;;;;;;44.80;22.07;;;;;;;4.59;90.14;101859.17;1708559;81;25467;-49
2021/10/24 07:29:58;;;;;;;41.53;22.20;;;;;;;4.61;90.28;101857.61;1732856;81;25501;-48
2021/10/24 07:32:25;;;;;;;36.90;19.48;;;;;;;4.66;90.65;101869.26;1760617;81;25500;-49
2021/10/24 07:34:52;;;;;;;38.80;19.12;;;;;;;4.71;90.34;101871.79;1760687;81;25517;-52
2021/10/24 07:37:18;;;;;;;41.18;19.75;;;;;;;4.75;90.70;101868.42;1760652;81;27438;-48
2021/10/24 07:39:46;;;;;;;43.35;22.37;;;;;;;4.82;90.88;101872.34;1760518;81;25458;-53
2021/10/24 07:42:12;;;;;;;41.55;22.22;;;;;;;4.85;90.30;101877.22;1760637;81;25575;-49
2021/10/24 07:44:40;;;;;;;47.08;22.70;;;;;;;4.86;89.98;101873.50;1760647;81;25626;-48
2021/10/24 07:47:06;;;;;;;48.63;23.25;;;;;;;4.90;90.28;101878.67;1760674;81;25536;-49
2021/10/24 07:49:34;;;;;;;48.65;24.43;;;;;;;4.95;90.17;101887.37;1760621;81;27483;-49
2021/10/24 07:52:00;;;;;;;45.48;22.62;;;;;;;4.93;89.56;101888.14;1760479;79;25567;-49
2021/10/24 07:54:27;;;;;;;47.33;24.57;;;;;;;4.88;89.25;101884.80;1760646;81;25671;-48
2021/10/24 07:56:55;;;;;;;45.83;21.68;;;;;;;4.86;88.94;101890.39;1760615;81;25503;-51
2021/10/24 07:59:22;;;;;;;40.80;22.40;;;;;;;4.81;88.73;101892.14;1760703;81;25540;-53
2021/10/24 08:01:48;;;;;;;43.73;22.40;;;;;;;4.78;88.69;101888.58;1760673;81;27540;-54
2021/10/24 08:04:15;;;;;;;44.25;22.00;;;;;;;4.79;89.25;101888.88;1760582;81;25848;-50
2021/10/24 08:06:42;;;;;;;45.70;22.50;;;;;;;4.84;89.85;101890.34;1760616;81;25583;-49
2021/10/24 08:09:11;;;;;;;43.95;22.22;;;;;;;4.94;90.33;101891.94;1732795;81;25553;-49
2021/10/24 08:11:39;;;;;;;45.38;22.48;;;;;;;5.02;90.45;101889.41;1760774;81;26664;-50
2021/10/24 08:14:07;;;;;;;44.85;22.62;;;;;;;5.07;90.15;101888.19;1760663;81;28208;-51
2021/10/24 08:16:40;;;;;;;47.43;24.60;;;;;;;5.13;90.03;101887.27;1760570;81;25495;-49
2021/10/24 08:19:06;;;;;;;45.98;23.83;;;;;;;5.17;89.79;101890.30;1760693;81;25636;-50
2021/10/24 08:21:33;;;;;;;45.00;23.52;;;;;;;5.22;90.12;101895.25;1760592;81;25509;-53
2021/10/24 08:24:00;;;;;;;41.75;23.42;;;;;;;5.30;89.75;101896.78;1760752;81;25442;-52
2021/10/24 08:26:28;;;;;;;40.28;23.38;;;;;;;5.29;89.19;101898.35;1760734;81;27409;-49
2021/10/24 08:28:55;;;;;;;41.65;23.87;;;;;;;5.34;89.31;101892.56;1760551;81;25442;-51
2021/10/24 08:31:25;;;;;;;40.90;21.82;;;;;;;5.36;88.74;101898.53;1760590;81;25610;-53
2021/10/24 08:33:52;;;;;;;43.30;23.38;;;;;;;5.39;89.06;101889.99;1760165;81;25970;-53
2021/10/24 08:36:20;;;;;;;40.75;22.15;;;;;;;5.47;89.05;101899.56;1760818;81;25482;-49
2021/10/24 08:38:47;;;;;;;37.98;22.25;;;;;;;5.55;88.48;101894.34;1760598;81;27254;-53
2021/10/24 08:41:27;;;;;;;43.23;23.50;;;;;;;5.65;89.37;101895.09;1760512;81;25491;-49
2021/10/24 08:43:52;;;;;;;37.55;22.05;;;;;;;5.81;89.20;101906.45;1760202;81;25628;-50
2021/10/24 08:46:23;;;;;;;38.25;22.62;;;;;;;5.94;89.16;101898.64;1760561;81;27625;-48
2021/10/24 08:48:51;;;;;;;35.35;22.00;;;;;;;5.98;88.11;101896.62;1760671;81;25657;-49
2021/10/24 08:51:18;;;;;;;43.13;23.67;;;;;;;6.01;87.75;101902.06;1760630;81;27448;-48
2021/10/24 08:53:49;;;;;;;42.83;24.00;;;;;;;5.97;87.26;101903.03;1787442;79;25872;-48
2021/10/24 08:56:22;;;;;;;42.33;23.10;;;;;;;6.00;86.98;101904.45;1790486;80;25490;-48
2021/10/24 08:58:51;;;;;;;41.60;24.57;;;;;;;6.03;87.56;101904.48;1790482;80;26027;-48
2021/10/24 09:01:19;;;;;;;43.70;24.90;;;;;;;6.14;87.62;101907.66;1790689;80;25581;-49
2021/10/24 09:04:13;;;;;;;40.50;24.05;;;;;;;6.20;87.28;101912.09;1790546;80;27553;-49
2021/10/24 09:06:56;;;;;;;37.00;23.12;;;;;;;6.22;86.75;101909.17;1790461;80;25529;-46
2021/10/24 09:09:29;;;;;;;38.92;23.62;;;;;;;6.27;86.87;101914.09;1790108;78;25517;-49
2021/10/24 09:12:06;;;;;;;39.92;24.80;;;;;;;6.39;87.29;101913.24;1790482;79;25595;-48
2021/10/24 09:14:54;;;;;;;43.35;25.32;;;;;;;6.63;89.12;101913.94;1790578;80;25510;-50
2021/10/24 09:17:27;;;;;;;41.75;24.07;;;;;;;6.85;88.42;101918.07;1790542;80;27549;-47
2021/10/24 09:20:00;;;;;;;40.88;22.87;;;;;;;7.09;86.46;101913.33;1790458;80;25675;-54
2021/10/24 09:22:34;;;;;;;38.58;24.75;;;;;;;7.09;85.83;101922.75;1790579;80;25431;-54
2021/10/24 09:25:14;;;;;;;39.30;22.77;;;;;;;7.15;85.63;101915.05;1790528;80;26056;-53
2021/10/24 09:27:55;;;;;;;42.10;24.23;;;;;;;8.14;90.10;101917.41;1790587;80;25642;-54
2021/10/24 09:30:36;;;;;;;35.40;23.02;;;;;;;8.84;88.40;101922.98;1790214;79;27497;-57
2021/10/24 09:33:10;;;;;;;33.00;20.57;;;;;;;10.28;90.14;101929.14;1790475;80;25838;-54
2021/10/24 09:35:44;;;;;;;34.33;21.60;;;;;;;10.95;87.09;101934.67;1790558;80;25659;-54
2021/10/24 09:38:21;;;;;;;32.20;21.73;;;;;;;10.98;82.45;101928.17;1790536;80;25647;-54
2021/10/24 09:40:54;;;;;;;30.92;20.40;;;;;;;10.98;81.53;101935.46;1790552;78;25587;-54
2021/10/24 09:43:31;;;;;;;33.20;21.48;;;;;;;10.98;79.33;101935.46;1790570;80;28101;-53
2021/10/24 09:46:03;;;;;;;28.17;18.85;;;;;;;10.80;77.99;101930.87;1789671;79;25498;-52
2021/10/24 09:48:33;;;;;;;31.57;19.37;;;;;;;10.77;77.74;101940.88;1790560;80;25605;-54
2021/10/24 09:51:04;;;;;;;28.32;18.25;;;;;;;10.73;77.12;101934.39;1790437;80;26176;-54
2021/10/24 09:53:36;;;;;;;29.37;18.20;;;;;;;10.63;76.34;101936.53;1790494;79;25569;-55
2021/10/24 09:56:10;;;;;;;28.17;18.85;;;;;;;10.50;76.27;101937.61;1790550;80;27503;-55
2021/10/24 09:58:44;;;;;;;29.50;17.57;;;;;;;10.58;76.37;101940.59;1790212;79;27418;-53
2021/10/24 10:01:18;;;;;;;27.95;17.32;;;;;;;11.57;79.69;101938.09;1790259;79;25428;-54
2021/10/24 10:03:47;;;;;;;23.00;16.35;;;;;;;13.59;80.73;101940.02;1790455;80;25652;-54
2021/10/24 10:06:15;;;;;;;25.45;16.05;;;;;;;15.48;76.52;101941.02;1790679;80;25680;-55
2021/10/24 10:08:44;;;;;;;23.22;16.97;;;;;;;17.01;73.48;101940.70;1790506;78;28296;-56
2021/10/24 10:11:41;;;;;;;22.77;15.63;;;;;;;18.23;69.43;101937.02;1771259;80;25991;-55
2021/10/24 10:14:30;;;;;;;20.45;15.20;;;;;;;19.18;65.16;101946.30;1790510;80;25595;-55
2021/10/24 10:17:04;;;;;;;20.82;15.93;;;;;;;19.95;61.83;101943.56;1790606;80;25681;-56
2021/10/24 10:19:41;;;;;;;20.08;14.60;;;;;;;20.87;60.44;101932.79;1790544;80;25437;-55
2021/10/24 10:22:30;;;;;;;18.45;13.88;;;;;;;21.58;58.02;101941.28;1790557;80;28285;-54
2021/10/24 10:25:01;;;;;;;;;;;;;;;22.34;55.70;101948.55;1793124;80;25964;-55
2021/10/24 10:27:38;;;;;;;22.30;16.23;;;;;;;22.68;52.78;101942.21;1790611;80;25584;-55
2021/10/24 10:30:32;;;;;;;21.75;15.63;;;;;;;22.87;51.71;101942.13;1790515;80;25605;-53
2021/10/24 10:33:01;;;;;;;21.00;16.07;;;;;;;22.86;49.70;101939.13;1790667;80;25646;-54
2021/10/24 10:35:28;;;;;;;19.03;15.33;;;;;;;22.82;48.31;101942.37;1790872;80;27479;-53
2021/10/24 10:38:05;;;;;;;20.02;14.63;;;;;;;23.20;48.70;101935.50;1790567;80;25430;-55
2021/10/24 10:40:38;;;;;;;21.37;15.35;;;;;;;23.58;48.39;101940.39;1790595;78;25561;-55
2021/10/24 10:43:23;;;;;;;20.02;14.87;;;;;;;23.93;47.75;101934.09;1790071;79;25533;-60
2021/10/24 10:45:59;;;;;;;19.42;14.75;;;;;;;24.30;46.37;101934.29;1790730;80;25625;-55
2021/10/24 10:48:46;;;;;;;19.82;14.73;;;;;;;24.28;45.03;101940.73;1790610;80;27448;-55
2021/10/24 10:51:19;;;;;;;18.82;14.18;;;;;;;23.52;43.81;101936.28;1790569;80;25628;-54
2021/10/24 10:53:51;;;;;;;17.67;14.30;;;;;;;22.70;43.64;101934.97;1794252;79;25474;-54
2021/10/24 10:56:30;;;;;;;17.07;14.50;;;;;;;22.11;43.34;101937.78;1796525;79;25528;-53
2021/10/24 10:59:00;;;;;;;19.07;14.50;;;;;;;21.12;43.15;101928.73;1796553;79;25453;-54
2021/10/24 11:01:41;;;;;;;20.95;15.45;;;;;;;20.13;43.17;101936.57;1796543;79;28067;-53
2021/10/24 11:04:13;;;;;;;17.98;13.55;;;;;;;19.25;43.89;101938.93;1796485;79;25434;-54
2021/10/24 11:06:53;;;;;;;17.02;13.98;;;;;;;18.51;44.59;101937.27;1796528;79;25480;-55
2021/10/24 11:09:42;;;;;;;18.82;14.13;;;;;;;18.31;45.67;101936.80;1796506;78;25659;-53
2021/10/24 11:12:29;;;;;;;18.20;14.58;;;;;;;17.97;46.25;101936.20;1796773;79;25585;-53
2021/10/24 11:15:28;;;;;;;20.70;14.25;;;;;;;17.87;46.43;101931.25;1796518;79;27480;-53
2021/10/24 11:17:58;;;;;;;20.20;15.20;;;;;;;17.99;47.80;101938.84;1796601;79;25789;-54
2021/10/24 11:20:38;;;;;;;19.92;14.75;;;;;;;18.34;47.90;101931.22;1796462;79;25573;-54
2021/10/24 11:23:08;;;;;;;21.07;14.90;;;;;;;18.47;47.87;101933.83;1795769;79;26341;-54
2021/10/24 11:25:37;;;;;;;20.70;14.87;;;;;;;18.46;47.39;101934.94;1796590;79;25430;-57